Menifee, AR (72107)

9:49 PM CDT on July 24, 2016 (GMT -0500)
Bristol Place | | Change Station

Elev 354 ft 35.09 °N, 92.52 °W | Updated 59 seconds ago

Partly Cloudy
Partly Cloudy
77.2 °F
Feels Like 79 °F
N
0.0
Wind Variable Wind from NE
Gusts 0.0 mph

Today
High -- | Low -- °F
--% Chance of Precip.
Yesterday
High -- | Low -- °F
Precip. -- in
Pressure 29.96 in
Visibility 10.0 miles
Clouds Few 3700 ft
Heat Index 79 °F
Dew Point 70 °F
Humidity 79%
Rainfall 0.00 in
Snow Depth Not available.
6:13 AM 8:19 PM
Waning Gibbous, 70% visible
METAR KLRF 250158Z AUTO 26004KT 10SM FEW037 28/22 A2996 RMK AO2 SLP145 T02810217
Pressure 29.96 in
Visibility 10.0 miles
Clouds Few 3700 ft
Heat Index 79 °F
Dew Point 70 °F
Humidity 79%
Rainfall 0.00 in
Snow Depth Not available.
6:13 AM 8:19 PM
Waning Gibbous, 70% visible
METAR KLRF 250158Z AUTO 26004KT 10SM FEW037 28/22 A2996 RMK AO2 SLP145 T02810217

10-Day Weather Forecast

Almanac

Astronomy

Jul. 24, 2016 Rise Set
Actual Time
Civil Twilight
Nautical Twilight
Astronomical Twilight
Moon
Length of Visible Light
Length of Day
Tomorrow will be .
, % of the Moon is Illuminated

Today's Extremes

State Highs State Lows

Community

WunderPhotos

Upload Photos

1,927,246 photos uploaded!

WunderBlog® & News

Nearby

Air Quality

  Air Quality AQ Index Pollutant
Not available.

Snow Depth

Station Depth Elevation

Earthquake Activity

City Distance Mag. Time & Date
Minimum magnitude displayed is 2.5.

Coastal Water Temperatures

Place Temperature

Stations

Nearby Weather Stations

Station Location Temp. Windchill Dew Point Humidity Wind Precip. Elev Updated Type
                   

Watches & Warnings

There are currently no watches in effect.